sensor_id;sensor_type;location;lat;lon;timestamp;P1;durP1;ratioP1;P2;durP2;ratioP2
9304;SDS011;4690;52.422;13.486;2022-11-23T00:04:08;56.03;;;34.23;;
9304;SDS011;4690;52.422;13.486;2022-11-23T00:06:37;57.50;;;34.00;;
9304;SDS011;4690;52.422;13.486;2022-11-23T00:09:03;53.57;;;32.83;;
9304;SDS011;4690;52.422;13.486;2022-11-23T00:11:33;53.13;;;32.80;;
9304;SDS011;4690;52.422;13.486;2022-11-23T00:14:00;57.33;;;34.03;;
9304;SDS011;4690;52.422;13.486;2022-11-23T00:16:27;55.33;;;33.63;;
9304;SDS011;4690;52.422;13.486;2022-11-23T00:18:55;58.80;;;35.63;;
9304;SDS011;4690;52.422;13.486;2022-11-23T00:21:26;57.53;;;35.03;;
9304;SDS011;4690;52.422;13.486;2022-11-23T00:23:55;55.90;;;34.43;;
9304;SDS011;4690;52.422;13.486;2022-11-23T00:26:21;57.40;;;34.33;;
9304;SDS011;4690;52.422;13.486;2022-11-23T00:28:47;53.40;;;34.33;;
9304;SDS011;4690;52.422;13.486;2022-11-23T00:31:14;60.37;;;35.63;;
9304;SDS011;4690;52.422;13.486;2022-11-23T00:33:47;55.30;;;34.63;;
9304;SDS011;4690;52.422;13.486;2022-11-23T00:36:19;55.50;;;34.07;;
9304;SDS011;4690;52.422;13.486;2022-11-23T00:38:46;60.57;;;35.53;;
9304;SDS011;4690;52.422;13.486;2022-11-23T00:41:15;56.83;;;35.03;;
9304;SDS011;4690;52.422;13.486;2022-11-23T00:43:52;55.50;;;33.90;;
9304;SDS011;4690;52.422;13.486;2022-11-23T00:46:19;53.20;;;32.27;;
9304;SDS011;4690;52.422;13.486;2022-11-23T00:48:51;61.10;;;34.83;;
9304;SDS011;4690;52.422;13.486;2022-11-23T00:51:23;49.93;;;33.20;;
9304;SDS011;4690;52.422;13.486;2022-11-23T00:53:51;54.53;;;32.83;;
9304;SDS011;4690;52.422;13.486;2022-11-23T00:56:18;57.93;;;33.93;;
9304;SDS011;4690;52.422;13.486;2022-11-23T00:58:48;59.60;;;35.70;;
9304;SDS011;4690;52.422;13.486;2022-11-23T01:01:20;57.33;;;34.00;;
9304;SDS011;4690;52.422;13.486;2022-11-23T01:03:52;57.27;;;34.47;;
9304;SDS011;4690;52.422;13.486;2022-11-23T01:06:40;58.87;;;34.63;;
9304;SDS011;4690;52.422;13.486;2022-11-23T01:09:16;63.53;;;37.10;;
9304;SDS011;4690;52.422;13.486;2022-11-23T01:11:44;60.00;;;35.37;;
9304;SDS011;4690;52.422;13.486;2022-11-23T01:14:10;55.43;;;34.93;;
9304;SDS011;4690;52.422;13.486;2022-11-23T01:16:36;63.70;;;36.77;;
9304;SDS011;4690;52.422;13.486;2022-11-23T01:19:05;56.17;;;34.40;;
9304;SDS011;4690;52.422;13.486;2022-11-23T01:21:35;62.70;;;36.10;;
9304;SDS011;4690;52.422;13.486;2022-11-23T01:24:05;59.13;;;35.97;;
9304;SDS011;4690;52.422;13.486;2022-11-23T01:26:38;61.00;;;35.97;;
9304;SDS011;4690;52.422;13.486;2022-11-23T01:29:05;60.80;;;37.03;;
9304;SDS011;4690;52.422;13.486;2022-11-23T01:31:31;60.07;;;34.67;;
9304;SDS011;4690;52.422;13.486;2022-11-23T01:33:58;58.50;;;35.13;;
9304;SDS011;4690;52.422;13.486;2022-11-23T01:36:27;61.17;;;35.07;;
9304;SDS011;4690;52.422;13.486;2022-11-23T01:38:56;58.37;;;34.87;;
9304;SDS011;4690;52.422;13.486;2022-11-23T01:41:25;56.10;;;33.73;;
9304;SDS011;4690;52.422;13.486;2022-11-23T01:43:54;53.03;;;32.47;;
9304;SDS011;4690;52.422;13.486;2022-11-23T01:46:21;52.90;;;32.97;;
9304;SDS011;4690;52.422;13.486;2022-11-23T01:51:30;55.17;;;32.97;;
9304;SDS011;4690;52.422;13.486;2022-11-23T01:54:02;49.90;;;29.93;;
9304;SDS011;4690;52.422;13.486;2022-11-23T01:56:43;50.20;;;30.87;;
9304;SDS011;4690;52.422;13.486;2022-11-23T01:59:17;49.77;;;30.40;;
9304;SDS011;4690;52.422;13.486;2022-11-23T02:01:45;49.07;;;31.10;;
9304;SDS011;4690;52.422;13.486;2022-11-23T02:04:16;50.47;;;32.07;;
9304;SDS011;4690;52.422;13.486;2022-11-23T02:06:48;50.70;;;33.07;;
9304;SDS011;4690;52.422;13.486;2022-11-23T02:09:15;53.93;;;32.73;;
9304;SDS011;4690;52.422;13.486;2022-11-23T02:11:41;53.90;;;32.80;;
9304;SDS011;4690;52.422;13.486;2022-11-23T02:14:07;51.37;;;32.03;;
9304;SDS011;4690;52.422;13.486;2022-11-23T02:16:33;47.53;;;31.50;;
9304;SDS011;4690;52.422;13.486;2022-11-23T02:19:02;54.50;;;33.53;;
9304;SDS011;4690;52.422;13.486;2022-11-23T02:21:37;52.03;;;31.43;;
9304;SDS011;4690;52.422;13.486;2022-11-23T02:24:09;51.63;;;34.03;;
9304;SDS011;4690;52.422;13.486;2022-11-23T02:26:49;51.00;;;31.20;;
9304;SDS011;4690;52.422;13.486;2022-11-23T02:31:52;45.53;;;29.43;;
9304;SDS011;4690;52.422;13.486;2022-11-23T02:34:18;47.80;;;31.47;;
9304;SDS011;4690;52.422;13.486;2022-11-23T02:36:45;50.80;;;30.73;;
9304;SDS011;4690;52.422;13.486;2022-11-23T02:39:19;51.70;;;33.17;;
9304;SDS011;4690;52.422;13.486;2022-11-23T02:41:58;46.37;;;30.13;;
9304;SDS011;4690;52.422;13.486;2022-11-23T02:47:23;46.80;;;31.07;;
9304;SDS011;4690;52.422;13.486;2022-11-23T02:49:49;43.13;;;30.13;;
9304;SDS011;4690;52.422;13.486;2022-11-23T02:52:15;47.33;;;31.30;;
9304;SDS011;4690;52.422;13.486;2022-11-23T02:54:42;42.53;;;28.50;;
9304;SDS011;4690;52.422;13.486;2022-11-23T02:57:08;50.20;;;32.40;;
9304;SDS011;4690;52.422;13.486;2022-11-23T02:59:37;46.60;;;29.87;;
9304;SDS011;4690;52.422;13.486;2022-11-23T03:02:03;47.20;;;30.67;;
9304;SDS011;4690;52.422;13.486;2022-11-23T03:04:30;45.20;;;30.77;;
9304;SDS011;4690;52.422;13.486;2022-11-23T03:06:56;44.60;;;30.13;;
9304;SDS011;4690;52.422;13.486;2022-11-23T03:09:22;44.23;;;30.40;;
9304;SDS011;4690;52.422;13.486;2022-11-23T03:11:50;48.40;;;30.47;;
9304;SDS011;4690;52.422;13.486;2022-11-23T03:14:19;50.80;;;31.30;;
9304;SDS011;4690;52.422;13.486;2022-11-23T03:16:45;47.77;;;30.93;;
9304;SDS011;4690;52.422;13.486;2022-11-23T03:19:11;48.03;;;30.43;;
9304;SDS011;4690;52.422;13.486;2022-11-23T03:21:37;49.53;;;31.33;;
9304;SDS011;4690;52.422;13.486;2022-11-23T03:24:03;47.87;;;30.57;;
9304;SDS011;4690;52.422;13.486;2022-11-23T03:26:29;49.70;;;31.93;;
9304;SDS011;4690;52.422;13.486;2022-11-23T03:28:54;48.87;;;31.40;;
9304;SDS011;4690;52.422;13.486;2022-11-23T03:31:20;45.43;;;29.53;;
9304;SDS011;4690;52.422;13.486;2022-11-23T03:33:46;44.47;;;30.00;;
9304;SDS011;4690;52.422;13.486;2022-11-23T03:36:12;44.90;;;30.33;;
9304;SDS011;4690;52.422;13.486;2022-11-23T03:38:37;51.83;;;31.80;;
9304;SDS011;4690;52.422;13.486;2022-11-23T03:41:03;46.43;;;31.23;;
9304;SDS011;4690;52.422;13.486;2022-11-23T03:43:29;48.27;;;31.70;;
9304;SDS011;4690;52.422;13.486;2022-11-23T03:45:55;46.93;;;31.20;;
9304;SDS011;4690;52.422;13.486;2022-11-23T03:48:20;51.27;;;32.03;;
9304;SDS011;4690;52.422;13.486;2022-11-23T03:50:46;50.53;;;32.13;;
9304;SDS011;4690;52.422;13.486;2022-11-23T03:53:12;49.47;;;31.97;;
9304;SDS011;4690;52.422;13.486;2022-11-23T03:55:38;48.80;;;30.57;;
9304;SDS011;4690;52.422;13.486;2022-11-23T03:58:04;43.83;;;30.40;;
9304;SDS011;4690;52.422;13.486;2022-11-23T04:00:30;48.13;;;30.13;;
9304;SDS011;4690;52.422;13.486;2022-11-23T04:02:56;47.70;;;31.67;;
9304;SDS011;4690;52.422;13.486;2022-11-23T04:05:22;49.40;;;32.77;;
9304;SDS011;4690;52.422;13.486;2022-11-23T04:07:48;53.57;;;32.73;;
9304;SDS011;4690;52.422;13.486;2022-11-23T04:10:15;48.60;;;30.77;;
9304;SDS011;4690;52.422;13.486;2022-11-23T04:12:43;47.83;;;31.93;;
9304;SDS011;4690;52.422;13.486;2022-11-23T04:15:10;50.70;;;31.90;;
9304;SDS011;4690;52.422;13.486;2022-11-23T04:17:36;47.60;;;30.47;;
9304;SDS011;4690;52.422;13.486;2022-11-23T04:20:03;51.07;;;31.77;;
9304;SDS011;4690;52.422;13.486;2022-11-23T04:22:29;45.60;;;30.33;;
9304;SDS011;4690;52.422;13.486;2022-11-23T04:24:56;47.43;;;29.90;;
9304;SDS011;4690;52.422;13.486;2022-11-23T04:27:22;46.43;;;29.97;;
9304;SDS011;4690;52.422;13.486;2022-11-23T04:29:47;47.03;;;29.90;;
9304;SDS011;4690;52.422;13.486;2022-11-23T04:32:13;50.37;;;31.43;;
9304;SDS011;4690;52.422;13.486;2022-11-23T04:34:39;50.07;;;33.13;;
9304;SDS011;4690;52.422;13.486;2022-11-23T04:37:04;44.03;;;29.97;;
9304;SDS011;4690;52.422;13.486;2022-11-23T04:39:30;45.03;;;29.23;;
9304;SDS011;4690;52.422;13.486;2022-11-23T04:41:56;46.50;;;30.67;;
9304;SDS011;4690;52.422;13.486;2022-11-23T04:44:22;48.57;;;31.33;;
9304;SDS011;4690;52.422;13.486;2022-11-23T04:46:47;45.17;;;29.80;;
9304;SDS011;4690;52.422;13.486;2022-11-23T04:49:14;45.73;;;29.27;;
9304;SDS011;4690;52.422;13.486;2022-11-23T04:51:41;50.73;;;31.20;;
9304;SDS011;4690;52.422;13.486;2022-11-23T04:54:07;46.60;;;29.30;;
9304;SDS011;4690;52.422;13.486;2022-11-23T04:56:33;49.97;;;31.40;;
9304;SDS011;4690;52.422;13.486;2022-11-23T04:58:59;47.80;;;30.40;;
9304;SDS011;4690;52.422;13.486;2022-11-23T05:01:25;45.97;;;30.53;;
9304;SDS011;4690;52.422;13.486;2022-11-23T05:03:51;42.57;;;28.53;;
9304;SDS011;4690;52.422;13.486;2022-11-23T05:06:16;46.83;;;30.17;;
9304;SDS011;4690;52.422;13.486;2022-11-23T05:08:42;50.13;;;32.23;;
9304;SDS011;4690;52.422;13.486;2022-11-23T05:11:08;50.17;;;32.30;;
9304;SDS011;4690;52.422;13.486;2022-11-23T05:13:34;47.67;;;31.03;;
9304;SDS011;4690;52.422;13.486;2022-11-23T05:15:59;45.53;;;30.60;;
9304;SDS011;4690;52.422;13.486;2022-11-23T05:18:25;48.90;;;31.77;;
9304;SDS011;4690;52.422;13.486;2022-11-23T05:20:51;45.83;;;29.43;;
9304;SDS011;4690;52.422;13.486;2022-11-23T05:23:17;51.90;;;31.80;;
9304;SDS011;4690;52.422;13.486;2022-11-23T05:25:49;47.73;;;31.43;;
9304;SDS011;4690;52.422;13.486;2022-11-23T05:28:16;45.57;;;30.40;;
9304;SDS011;4690;52.422;13.486;2022-11-23T05:30:44;53.37;;;31.73;;
9304;SDS011;4690;52.422;13.486;2022-11-23T05:33:10;42.43;;;28.63;;
9304;SDS011;4690;52.422;13.486;2022-11-23T05:35:36;45.93;;;30.83;;
9304;SDS011;4690;52.422;13.486;2022-11-23T05:38:02;43.40;;;29.53;;
9304;SDS011;4690;52.422;13.486;2022-11-23T05:40:28;45.10;;;30.53;;
9304;SDS011;4690;52.422;13.486;2022-11-23T05:42:54;44.83;;;31.07;;
9304;SDS011;4690;52.422;13.486;2022-11-23T05:45:21;47.77;;;31.47;;
9304;SDS011;4690;52.422;13.486;2022-11-23T05:47:48;44.13;;;28.93;;
9304;SDS011;4690;52.422;13.486;2022-11-23T05:50:16;50.57;;;33.60;;
9304;SDS011;4690;52.422;13.486;2022-11-23T05:52:42;43.33;;;29.07;;
9304;SDS011;4690;52.422;13.486;2022-11-23T05:55:08;45.43;;;29.83;;
9304;SDS011;4690;52.422;13.486;2022-11-23T05:57:34;41.53;;;29.17;;
9304;SDS011;4690;52.422;13.486;2022-11-23T05:59:59;46.10;;;29.93;;
9304;SDS011;4690;52.422;13.486;2022-11-23T06:02:26;41.80;;;29.10;;
9304;SDS011;4690;52.422;13.486;2022-11-23T06:04:51;43.03;;;29.63;;
9304;SDS011;4690;52.422;13.486;2022-11-23T06:07:17;46.77;;;28.97;;
9304;SDS011;4690;52.422;13.486;2022-11-23T06:09:43;41.77;;;29.17;;
9304;SDS011;4690;52.422;13.486;2022-11-23T06:12:08;45.10;;;28.13;;
9304;SDS011;4690;52.422;13.486;2022-11-23T06:14:34;42.80;;;28.60;;
9304;SDS011;4690;52.422;13.486;2022-11-23T06:17:00;40.13;;;27.60;;
9304;SDS011;4690;52.422;13.486;2022-11-23T06:19:26;41.40;;;28.13;;
9304;SDS011;4690;52.422;13.486;2022-11-23T06:21:54;45.00;;;29.08;;
9304;SDS011;4690;52.422;13.486;2022-11-23T06:24:21;46.20;;;28.37;;
9304;SDS011;4690;52.422;13.486;2022-11-23T06:26:49;45.10;;;27.70;;
9304;SDS011;4690;52.422;13.486;2022-11-23T06:29:16;38.63;;;27.67;;
9304;SDS011;4690;52.422;13.486;2022-11-23T06:31:43;43.60;;;29.67;;
9304;SDS011;4690;52.422;13.486;2022-11-23T06:34:10;43.03;;;28.20;;
9304;SDS011;4690;52.422;13.486;2022-11-23T06:36:36;44.67;;;28.60;;
9304;SDS011;4690;52.422;13.486;2022-11-23T06:39:02;46.63;;;30.80;;
9304;SDS011;4690;52.422;13.486;2022-11-23T06:41:28;40.70;;;27.80;;
9304;SDS011;4690;52.422;13.486;2022-11-23T06:43:54;43.33;;;28.70;;
9304;SDS011;4690;52.422;13.486;2022-11-23T06:46:19;40.07;;;27.77;;
9304;SDS011;4690;52.422;13.486;2022-11-23T06:48:45;41.77;;;28.03;;
9304;SDS011;4690;52.422;13.486;2022-11-23T06:51:12;41.70;;;27.43;;
9304;SDS011;4690;52.422;13.486;2022-11-23T06:53:39;37.47;;;27.00;;
9304;SDS011;4690;52.422;13.486;2022-11-23T06:56:06;41.80;;;27.77;;
9304;SDS011;4690;52.422;13.486;2022-11-23T06:58:32;39.40;;;26.63;;
9304;SDS011;4690;52.422;13.486;2022-11-23T07:01:03;40.03;;;27.30;;
9304;SDS011;4690;52.422;13.486;2022-11-23T07:03:32;39.57;;;27.37;;
9304;SDS011;4690;52.422;13.486;2022-11-23T07:06:02;43.23;;;27.40;;
9304;SDS011;4690;52.422;13.486;2022-11-23T07:08:33;50.43;;;29.27;;
9304;SDS011;4690;52.422;13.486;2022-11-23T07:11:04;43.83;;;28.23;;
9304;SDS011;4690;52.422;13.486;2022-11-23T07:13:31;40.07;;;27.97;;
9304;SDS011;4690;52.422;13.486;2022-11-23T07:15:57;39.80;;;27.53;;
9304;SDS011;4690;52.422;13.486;2022-11-23T07:18:24;42.53;;;27.93;;
9304;SDS011;4690;52.422;13.486;2022-11-23T07:20:50;40.10;;;27.27;;
9304;SDS011;4690;52.422;13.486;2022-11-23T07:23:19;43.73;;;28.77;;
9304;SDS011;4690;52.422;13.486;2022-11-23T07:25:44;39.23;;;26.27;;
9304;SDS011;4690;52.422;13.486;2022-11-23T07:28:10;43.27;;;28.87;;
9304;SDS011;4690;52.422;13.486;2022-11-23T07:30:40;44.53;;;30.33;;
9304;SDS011;4690;52.422;13.486;2022-11-23T07:33:06;44.27;;;29.67;;
9304;SDS011;4690;52.422;13.486;2022-11-23T07:35:35;41.00;;;28.60;;
9304;SDS011;4690;52.422;13.486;2022-11-23T07:38:02;41.00;;;28.83;;
9304;SDS011;4690;52.422;13.486;2022-11-23T07:40:32;40.17;;;27.57;;
9304;SDS011;4690;52.422;13.486;2022-11-23T07:43:00;43.10;;;29.70;;
9304;SDS011;4690;52.422;13.486;2022-11-23T07:45:29;42.97;;;29.47;;
9304;SDS011;4690;52.422;13.486;2022-11-23T07:50:26;40.57;;;28.40;;
9304;SDS011;4690;52.422;13.486;2022-11-23T07:52:52;43.07;;;29.70;;
9304;SDS011;4690;52.422;13.486;2022-11-23T07:55:18;40.53;;;29.03;;
9304;SDS011;4690;52.422;13.486;2022-11-23T07:57:44;41.87;;;28.83;;
9304;SDS011;4690;52.422;13.486;2022-11-23T08:00:10;42.37;;;28.30;;
9304;SDS011;4690;52.422;13.486;2022-11-23T08:02:36;42.23;;;27.77;;
9304;SDS011;4690;52.422;13.486;2022-11-23T08:05:03;38.23;;;27.07;;
9304;SDS011;4690;52.422;13.486;2022-11-23T08:07:29;38.67;;;27.73;;
9304;SDS011;4690;52.422;13.486;2022-11-23T08:09:55;37.97;;;27.87;;
9304;SDS011;4690;52.422;13.486;2022-11-23T08:12:21;34.57;;;26.03;;
9304;SDS011;4690;52.422;13.486;2022-11-23T08:14:46;37.17;;;26.50;;
9304;SDS011;4690;52.422;13.486;2022-11-23T08:17:12;38.20;;;26.53;;
9304;SDS011;4690;52.422;13.486;2022-11-23T08:19:38;33.07;;;25.17;;
9304;SDS011;4690;52.422;13.486;2022-11-23T08:22:03;39.70;;;25.60;;
9304;SDS011;4690;52.422;13.486;2022-11-23T08:24:29;33.90;;;25.20;;
9304;SDS011;4690;52.422;13.486;2022-11-23T08:26:55;33.20;;;22.70;;
9304;SDS011;4690;52.422;13.486;2022-11-23T08:29:21;31.43;;;23.70;;
9304;SDS011;4690;52.422;13.486;2022-11-23T08:31:47;29.97;;;23.07;;
9304;SDS011;4690;52.422;13.486;2022-11-23T08:34:12;32.47;;;23.33;;
9304;SDS011;4690;52.422;13.486;2022-11-23T08:36:38;33.27;;;23.20;;
9304;SDS011;4690;52.422;13.486;2022-11-23T08:39:04;30.40;;;23.50;;
9304;SDS011;4690;52.422;13.486;2022-11-23T08:41:31;31.83;;;22.30;;
9304;SDS011;4690;52.422;13.486;2022-11-23T08:43:58;30.97;;;22.37;;
9304;SDS011;4690;52.422;13.486;2022-11-23T08:46:23;30.27;;;22.80;;
9304;SDS011;4690;52.422;13.486;2022-11-23T08:48:49;28.93;;;21.23;;
9304;SDS011;4690;52.422;13.486;2022-11-23T08:51:15;29.63;;;21.57;;
9304;SDS011;4690;52.422;13.486;2022-11-23T08:53:46;28.27;;;22.10;;
9304;SDS011;4690;52.422;13.486;2022-11-23T08:56:13;27.07;;;20.33;;
9304;SDS011;4690;52.422;13.486;2022-11-23T08:58:38;28.20;;;20.50;;
9304;SDS011;4690;52.422;13.486;2022-11-23T09:01:08;29.57;;;21.10;;
9304;SDS011;4690;52.422;13.486;2022-11-23T09:03:36;26.70;;;20.03;;
9304;SDS011;4690;52.422;13.486;2022-11-23T09:06:02;25.50;;;20.10;;
9304;SDS011;4690;52.422;13.486;2022-11-23T09:08:28;29.20;;;20.43;;
9304;SDS011;4690;52.422;13.486;2022-11-23T09:10:57;25.23;;;20.30;;
9304;SDS011;4690;52.422;13.486;2022-11-23T09:13:29;25.10;;;19.70;;
9304;SDS011;4690;52.422;13.486;2022-11-23T09:15:56;23.27;;;18.70;;
9304;SDS011;4690;52.422;13.486;2022-11-23T09:18:24;24.03;;;18.73;;
9304;SDS011;4690;52.422;13.486;2022-11-23T09:20:51;25.67;;;19.63;;
9304;SDS011;4690;52.422;13.486;2022-11-23T09:23:17;27.13;;;18.93;;
9304;SDS011;4690;52.422;13.486;2022-11-23T09:25:43;23.03;;;19.10;;
9304;SDS011;4690;52.422;13.486;2022-11-23T09:28:12;22.47;;;17.77;;
9304;SDS011;4690;52.422;13.486;2022-11-23T09:30:39;26.50;;;19.60;;
9304;SDS011;4690;52.422;13.486;2022-11-23T09:33:05;24.40;;;19.60;;
9304;SDS011;4690;52.422;13.486;2022-11-23T09:35:32;24.80;;;18.83;;
9304;SDS011;4690;52.422;13.486;2022-11-23T09:37:59;23.53;;;18.90;;
9304;SDS011;4690;52.422;13.486;2022-11-23T09:40:38;26.10;;;18.17;;
9304;SDS011;4690;52.422;13.486;2022-11-23T09:46:02;22.73;;;18.03;;
9304;SDS011;4690;52.422;13.486;2022-11-23T09:49:00;26.03;;;18.53;;
9304;SDS011;4690;52.422;13.486;2022-11-23T09:51:37;23.97;;;18.67;;
9304;SDS011;4690;52.422;13.486;2022-11-23T09:56:37;23.27;;;18.73;;
9304;SDS011;4690;52.422;13.486;2022-11-23T09:59:11;24.37;;;18.27;;
9304;SDS011;4690;52.422;13.486;2022-11-23T10:01:47;24.77;;;18.77;;
9304;SDS011;4690;52.422;13.486;2022-11-23T10:04:17;23.10;;;18.47;;
9304;SDS011;4690;52.422;13.486;2022-11-23T10:06:44;25.47;;;18.53;;
9304;SDS011;4690;52.422;13.486;2022-11-23T10:15:50;24.57;;;18.27;;
9304;SDS011;4690;52.422;13.486;2022-11-23T10:18:45;22.13;;;17.77;;
9304;SDS011;4690;52.422;13.486;2022-11-23T10:21:32;21.63;;;17.87;;
9304;SDS011;4690;52.422;13.486;2022-11-23T10:24:18;21.30;;;17.23;;
9304;SDS011;4690;52.422;13.486;2022-11-23T10:26:53;23.23;;;17.70;;
9304;SDS011;4690;52.422;13.486;2022-11-23T10:29:33;25.43;;;17.63;;
9304;SDS011;4690;52.422;13.486;2022-11-23T10:32:01;22.13;;;17.30;;
9304;SDS011;4690;52.422;13.486;2022-11-23T10:34:47;21.70;;;17.03;;
9304;SDS011;4690;52.422;13.486;2022-11-23T10:37:30;23.57;;;17.13;;
9304;SDS011;4690;52.422;13.486;2022-11-23T10:40:02;21.33;;;16.50;;
9304;SDS011;4690;52.422;13.486;2022-11-23T10:45:02;19.33;;;16.23;;
9304;SDS011;4690;52.422;13.486;2022-11-23T10:47:37;22.03;;;17.03;;
9304;SDS011;4690;52.422;13.486;2022-11-23T10:50:19;20.87;;;16.73;;
9304;SDS011;4690;52.422;13.486;2022-11-23T10:53:04;20.30;;;17.03;;
9304;SDS011;4690;52.422;13.486;2022-11-23T10:55:53;21.20;;;16.67;;
9304;SDS011;4690;52.422;13.486;2022-11-23T10:58:28;21.13;;;16.60;;
9304;SDS011;4690;52.422;13.486;2022-11-23T11:01:10;22.80;;;17.20;;
9304;SDS011;4690;52.422;13.486;2022-11-23T11:03:41;20.33;;;15.70;;
9304;SDS011;4690;52.422;13.486;2022-11-23T11:06:06;19.10;;;15.00;;
9304;SDS011;4690;52.422;13.486;2022-11-23T11:08:34;20.00;;;15.50;;
9304;SDS011;4690;52.422;13.486;2022-11-23T11:11:30;20.60;;;15.37;;
9304;SDS011;4690;52.422;13.486;2022-11-23T11:14:01;22.60;;;16.47;;
9304;SDS011;4690;52.422;13.486;2022-11-23T11:16:45;20.53;;;15.33;;
9304;SDS011;4690;52.422;13.486;2022-11-23T11:21:53;19.63;;;14.87;;
9304;SDS011;4690;52.422;13.486;2022-11-23T11:24:22;21.33;;;16.03;;
9304;SDS011;4690;52.422;13.486;2022-11-23T11:26:52;20.30;;;15.20;;
9304;SDS011;4690;52.422;13.486;2022-11-23T11:29:30;19.43;;;14.80;;
9304;SDS011;4690;52.422;13.486;2022-11-23T11:32:07;18.80;;;14.53;;
9304;SDS011;4690;52.422;13.486;2022-11-23T11:37:50;18.20;;;14.37;;
9304;SDS011;4690;52.422;13.486;2022-11-23T11:40:36;18.13;;;14.10;;
9304;SDS011;4690;52.422;13.486;2022-11-23T11:46:03;18.00;;;13.77;;
9304;SDS011;4690;52.422;13.486;2022-11-23T11:48:36;16.87;;;13.70;;
9304;SDS011;4690;52.422;13.486;2022-11-23T11:54:19;18.73;;;13.60;;
9304;SDS011;4690;52.422;13.486;2022-11-23T11:56:59;18.07;;;13.47;;
9304;SDS011;4690;52.422;13.486;2022-11-23T11:59:35;15.73;;;12.87;;
9304;SDS011;4690;52.422;13.486;2022-11-23T12:08:15;16.67;;;12.40;;
9304;SDS011;4690;52.422;13.486;2022-11-23T12:11:04;14.47;;;11.60;;
9304;SDS011;4690;52.422;13.486;2022-11-23T12:13:32;16.03;;;12.43;;
9304;SDS011;4690;52.422;13.486;2022-11-23T12:16:07;19.33;;;13.67;;
9304;SDS011;4690;52.422;13.486;2022-11-23T12:19:01;15.60;;;12.30;;
9304;SDS011;4690;52.422;13.486;2022-11-23T13:22:34;14.30;;;11.00;;
9304;SDS011;4690;52.422;13.486;2022-11-23T13:40:42;14.47;;;10.90;;
9304;SDS011;4690;52.422;13.486;2022-11-23T13:45:39;16.33;;;11.83;;
9304;SDS011;4690;52.422;13.486;2022-11-23T13:50:34;16.83;;;11.50;;
9304;SDS011;4690;52.422;13.486;2022-11-23T13:53:04;14.87;;;11.23;;
9304;SDS011;4690;52.422;13.486;2022-11-23T13:56:22;15.13;;;12.17;;
9304;SDS011;4690;52.422;13.486;2022-11-23T14:04:41;16.63;;;12.13;;
9304;SDS011;4690;52.422;13.486;2022-11-23T14:07:14;18.63;;;12.90;;
9304;SDS011;4690;52.422;13.486;2022-11-23T14:09:50;16.00;;;12.97;;
9304;SDS011;4690;52.422;13.486;2022-11-23T14:15:19;18.80;;;13.90;;
9304;SDS011;4690;52.422;13.486;2022-11-23T14:28:58;16.33;;;12.90;;
9304;SDS011;4690;52.422;13.486;2022-11-23T14:40:36;17.53;;;13.20;;
9304;SDS011;4690;52.422;13.486;2022-11-23T14:43:30;15.57;;;12.53;;
9304;SDS011;4690;52.422;13.486;2022-11-23T14:46:01;17.80;;;12.50;;
9304;SDS011;4690;52.422;13.486;2022-11-23T14:48:31;17.20;;;13.83;;
9304;SDS011;4690;52.422;13.486;2022-11-23T14:51:00;15.17;;;12.60;;
9304;SDS011;4690;52.422;13.486;2022-11-23T14:53:40;15.50;;;12.53;;
9304;SDS011;4690;52.422;13.486;2022-11-23T14:56:20;17.13;;;13.43;;
9304;SDS011;4690;52.422;13.486;2022-11-23T14:58:55;18.20;;;13.10;;
9304;SDS011;4690;52.422;13.486;2022-11-23T15:01:28;16.03;;;12.87;;
9304;SDS011;4690;52.422;13.486;2022-11-23T15:03:58;18.70;;;13.10;;
9304;SDS011;4690;52.422;13.486;2022-11-23T15:06:33;16.73;;;13.60;;
9304;SDS011;4690;52.422;13.486;2022-11-23T15:09:07;18.30;;;13.23;;
9304;SDS011;4690;52.422;13.486;2022-11-23T15:11:36;16.07;;;12.97;;
9304;SDS011;4690;52.422;13.486;2022-11-23T15:14:02;15.50;;;13.60;;
9304;SDS011;4690;52.422;13.486;2022-11-23T15:16:49;17.83;;;13.27;;
9304;SDS011;4690;52.422;13.486;2022-11-23T15:19:19;17.03;;;14.03;;
9304;SDS011;4690;52.422;13.486;2022-11-23T15:21:53;14.53;;;12.90;;
9304;SDS011;4690;52.422;13.486;2022-11-23T15:24:24;16.80;;;12.90;;
9304;SDS011;4690;52.422;13.486;2022-11-23T15:26:51;20.70;;;14.10;;
9304;SDS011;4690;52.422;13.486;2022-11-23T15:29:33;19.50;;;15.30;;
9304;SDS011;4690;52.422;13.486;2022-11-23T15:32:01;20.27;;;14.53;;
9304;SDS011;4690;52.422;13.486;2022-11-23T15:34:45;18.73;;;14.50;;
9304;SDS011;4690;52.422;13.486;2022-11-23T15:37:13;21.27;;;16.50;;
9304;SDS011;4690;52.422;13.486;2022-11-23T15:39:40;18.10;;;15.37;;
9304;SDS011;4690;52.422;13.486;2022-11-23T15:42:07;21.30;;;16.63;;
9304;SDS011;4690;52.422;13.486;2022-11-23T15:44:43;24.13;;;18.17;;
9304;SDS011;4690;52.422;13.486;2022-11-23T15:47:12;26.47;;;23.20;;
9304;SDS011;4690;52.422;13.486;2022-11-23T15:49:52;21.33;;;15.40;;
9304;SDS011;4690;52.422;13.486;2022-11-23T15:52:32;23.20;;;20.63;;
9304;SDS011;4690;52.422;13.486;2022-11-23T15:55:04;30.77;;;26.73;;
9304;SDS011;4690;52.422;13.486;2022-11-23T15:57:37;23.77;;;18.30;;
9304;SDS011;4690;52.422;13.486;2022-11-23T16:00:04;18.30;;;15.80;;
9304;SDS011;4690;52.422;13.486;2022-11-23T16:02:33;21.07;;;15.97;;
9304;SDS011;4690;52.422;13.486;2022-11-23T16:07:54;32.93;;;27.30;;
9304;SDS011;4690;52.422;13.486;2022-11-23T16:10:29;40.97;;;33.00;;
9304;SDS011;4690;52.422;13.486;2022-11-23T16:18:18;22.30;;;17.87;;
9304;SDS011;4690;52.422;13.486;2022-11-23T16:20:58;26.67;;;21.27;;
9304;SDS011;4690;52.422;13.486;2022-11-23T16:23:41;20.07;;;15.80;;
9304;SDS011;4690;52.422;13.486;2022-11-23T16:26:20;21.40;;;16.27;;
9304;SDS011;4690;52.422;13.486;2022-11-23T16:28:57;18.07;;;14.60;;
9304;SDS011;4690;52.422;13.486;2022-11-23T16:33:59;20.73;;;17.07;;
9304;SDS011;4690;52.422;13.486;2022-11-23T16:36:26;22.67;;;17.33;;
9304;SDS011;4690;52.422;13.486;2022-11-23T16:38:53;22.10;;;17.57;;
9304;SDS011;4690;52.422;13.486;2022-11-23T16:41:19;21.57;;;17.00;;
9304;SDS011;4690;52.422;13.486;2022-11-23T16:43:48;22.57;;;18.00;;
9304;SDS011;4690;52.422;13.486;2022-11-23T16:46:18;21.77;;;18.17;;
9304;SDS011;4690;52.422;13.486;2022-11-23T16:48:44;23.73;;;17.63;;
9304;SDS011;4690;52.422;13.486;2022-11-23T16:51:10;25.97;;;19.87;;
9304;SDS011;4690;52.422;13.486;2022-11-23T16:53:40;20.30;;;17.13;;
9304;SDS011;4690;52.422;13.486;2022-11-23T16:56:09;20.40;;;16.40;;
9304;SDS011;4690;52.422;13.486;2022-11-23T16:58:43;60.00;;;53.47;;
9304;SDS011;4690;52.422;13.486;2022-11-23T17:01:13;41.60;;;35.80;;
9304;SDS011;4690;52.422;13.486;2022-11-23T17:03:54;25.00;;;20.73;;
9304;SDS011;4690;52.422;13.486;2022-11-23T17:06:20;25.13;;;20.70;;
9304;SDS011;4690;52.422;13.486;2022-11-23T17:08:47;23.33;;;19.47;;
9304;SDS011;4690;52.422;13.486;2022-11-23T17:11:15;25.83;;;19.67;;
9304;SDS011;4690;52.422;13.486;2022-11-23T17:13:53;24.97;;;19.67;;
9304;SDS011;4690;52.422;13.486;2022-11-23T17:16:21;25.07;;;20.47;;
9304;SDS011;4690;52.422;13.486;2022-11-23T17:18:49;26.10;;;20.37;;
9304;SDS011;4690;52.422;13.486;2022-11-23T17:21:15;26.33;;;21.70;;
9304;SDS011;4690;52.422;13.486;2022-11-23T17:23:41;26.03;;;20.67;;
9304;SDS011;4690;52.422;13.486;2022-11-23T17:26:20;31.57;;;22.37;;
9304;SDS011;4690;52.422;13.486;2022-11-23T17:29:16;26.73;;;21.90;;
9304;SDS011;4690;52.422;13.486;2022-11-23T17:31:44;25.13;;;20.87;;
9304;SDS011;4690;52.422;13.486;2022-11-23T17:34:15;25.93;;;20.90;;
9304;SDS011;4690;52.422;13.486;2022-11-23T17:36:42;31.53;;;23.50;;